createdAt,value
2019-04-05T00:00:23.563Z,4.27
2019-04-05T00:01:26.360Z,4.24
2019-04-05T00:02:29.170Z,4.24
2019-04-05T00:03:32.024Z,4.25
2019-04-05T00:04:36.369Z,4.10
2019-04-05T00:05:39.177Z,4.08
2019-04-05T00:06:42.007Z,4.13
2019-04-05T00:07:45.179Z,4.12
2019-04-05T00:08:47.999Z,4.17
2019-04-05T00:09:51.321Z,4.15
2019-04-05T00:10:56.016Z,4.14
2019-04-05T00:11:58.833Z,4.14
2019-04-05T00:13:01.658Z,4.18
2019-04-05T00:14:04.450Z,4.20
2019-04-05T00:15:15.162Z,4.21
2019-04-05T00:16:11.871Z,4.14
2019-04-05T00:17:15.425Z,4.16
2019-04-05T00:18:18.351Z,4.16
2019-04-05T00:19:21.503Z,4.20
2019-04-05T00:20:25.594Z,4.20
2019-04-05T00:21:28.875Z,4.19
2019-04-05T00:22:31.722Z,4.20
2019-04-05T00:23:34.844Z,4.24
2019-04-05T00:24:37.665Z,4.23
2019-04-05T00:25:40.634Z,4.16
2019-04-05T00:26:43.520Z,4.23
2019-04-05T00:27:46.417Z,4.23
2019-04-05T00:28:52.178Z,4.31
2019-04-05T00:29:55.293Z,4.32
2019-04-05T00:30:58.279Z,4.28
2019-04-05T00:32:01.119Z,4.28
2019-04-05T00:33:03.971Z,4.23
2019-04-05T00:34:06.852Z,4.27
2019-04-05T00:35:13.004Z,4.27
2019-04-05T00:36:19.303Z,4.24
2019-04-05T00:37:22.512Z,4.21
2019-04-05T00:38:25.379Z,4.22
2019-04-05T00:39:28.221Z,4.18
2019-04-05T00:40:31.149Z,4.15
2019-04-05T00:41:34.013Z,4.17
2019-04-05T00:42:37.195Z,4.16
2019-04-05T00:43:39.995Z,4.07
2019-04-05T00:44:43.201Z,4.07
2019-04-05T00:45:46.022Z,4.02
2019-04-05T00:46:48.863Z,4.02
2019-04-05T00:47:51.742Z,4.10
2019-04-05T00:48:54.926Z,4.16
2019-04-05T00:49:58.130Z,4.22
2019-04-05T00:51:00.925Z,4.23
2019-04-05T00:52:03.759Z,4.19
2019-04-05T00:53:06.652Z,4.22
2019-04-05T00:54:09.845Z,4.27
2019-04-05T00:55:12.969Z,4.30
2019-04-05T00:56:16.244Z,4.33
2019-04-05T00:57:19.409Z,4.33
2019-04-05T00:58:22.244Z,4.35
2019-04-05T00:59:25.151Z,4.32
2019-04-05T01:00:27.979Z,4.35
2019-04-05T01:01:31.094Z,4.37
2019-04-05T01:02:33.896Z,4.37
2019-04-05T01:03:36.770Z,4.29
2019-04-05T01:04:39.592Z,4.30
2019-04-05T01:05:42.410Z,4.29
2019-04-05T01:06:45.709Z,4.25
2019-04-05T01:07:48.838Z,4.25
2019-04-05T01:08:51.731Z,4.22
2019-04-05T01:09:54.567Z,4.17
2019-04-05T01:10:57.899Z,4.18
2019-04-05T01:12:00.732Z,4.22
2019-04-05T01:13:03.602Z,4.26
2019-04-05T01:14:08.943Z,4.31
2019-04-05T01:15:11.821Z,4.34
2019-04-05T01:16:14.907Z,4.28
2019-04-05T01:17:24.909Z,4.22
2019-04-05T01:18:23.331Z,4.22
2019-04-05T01:19:27.027Z,4.22
2019-04-05T01:20:29.985Z,4.26
2019-04-05T01:21:32.788Z,4.26
2019-04-05T01:22:35.643Z,4.28
2019-04-05T01:23:38.483Z,4.33
2019-04-05T01:24:41.820Z,4.34
2019-04-05T01:25:44.682Z,4.34
2019-04-05T01:26:47.857Z,4.35
2019-04-05T01:27:50.671Z,4.35
2019-04-05T01:28:53.477Z,4.36
2019-04-05T01:29:56.396Z,4.36
2019-04-05T01:30:59.207Z,4.32
2019-04-05T01:32:02.389Z,4.27
2019-04-05T01:33:05.482Z,4.21
2019-04-05T01:34:08.336Z,4.20
2019-04-05T01:35:11.241Z,4.18
2019-04-05T01:36:14.522Z,4.12
2019-04-05T01:37:17.357Z,4.14
2019-04-05T01:38:20.175Z,4.16
2019-04-05T01:39:24.641Z,4.17
2019-04-05T01:40:30.607Z,4.20
2019-04-05T01:41:33.425Z,4.20
2019-04-05T01:42:36.269Z,4.20
2019-04-05T01:43:40.063Z,4.27
2019-04-05T01:44:42.947Z,4.28
2019-04-05T01:45:53.431Z,4.25
2019-04-05T01:46:50.851Z,4.25
2019-04-05T01:47:53.753Z,4.19
2019-04-05T01:48:56.574Z,4.13
2019-04-05T01:49:59.473Z,4.15
2019-04-05T01:51:02.286Z,4.14
2019-04-05T01:52:05.405Z,4.14
2019-04-05T01:53:08.740Z,4.16
2019-04-05T01:54:11.570Z,4.18
2019-04-05T01:55:14.452Z,4.13
2019-04-05T01:56:17.300Z,4.15
2019-04-05T01:57:20.164Z,4.15
2019-04-05T01:58:23.881Z,4.21
2019-04-05T01:59:26.713Z,4.23
2019-04-05T02:00:29.560Z,4.23
2019-04-05T02:01:32.388Z,4.25
2019-04-05T02:02:35.273Z,4.26
2019-04-05T02:03:38.108Z,4.22
2019-04-05T02:04:41.225Z,4.23
2019-04-05T02:05:44.038Z,4.19
2019-04-05T02:06:46.925Z,4.21
2019-04-05T02:07:49.717Z,4.21
2019-04-05T02:08:52.621Z,4.24
2019-04-05T02:09:55.437Z,4.25
2019-04-05T02:10:58.533Z,4.28
2019-04-05T02:12:01.353Z,4.30
2019-04-05T02:13:06.664Z,4.30
2019-04-05T02:14:09.354Z,4.20
2019-04-05T02:15:12.295Z,4.25
2019-04-05T02:16:15.216Z,4.25
2019-04-05T02:17:19.400Z,4.25
2019-04-05T02:18:22.518Z,4.23
2019-04-05T02:19:25.338Z,4.23
2019-04-05T02:20:28.607Z,4.18
2019-04-05T02:21:31.515Z,4.16
2019-04-05T02:22:34.340Z,4.08
2019-04-05T02:23:37.484Z,4.12
2019-04-05T02:24:40.292Z,4.10
2019-04-05T02:25:43.227Z,4.09
2019-04-05T02:26:46.094Z,4.10
2019-04-05T02:27:48.925Z,4.10
2019-04-05T02:28:51.775Z,4.06
2019-04-05T02:29:54.871Z,4.12
2019-04-05T02:30:57.799Z,4.07
2019-04-05T02:32:00.678Z,4.03
2019-04-05T02:33:03.944Z,4.05
2019-04-05T02:34:07.184Z,4.05
2019-04-05T02:35:13.076Z,4.07
2019-04-05T02:36:16.185Z,4.02
2019-04-05T02:37:19.012Z,4.02
2019-04-05T02:38:21.907Z,4.04
2019-04-05T02:39:25.088Z,4.05
2019-04-05T02:40:27.946Z,4.05
2019-04-05T02:41:30.787Z,4.06
2019-04-05T02:42:34.055Z,4.05
2019-04-05T02:43:36.960Z,4.05
2019-04-05T02:44:39.782Z,4.03
2019-04-05T02:45:42.569Z,4.04
2019-04-05T02:46:45.367Z,4.07
2019-04-05T02:47:51.675Z,4.06
2019-04-05T02:48:53.432Z,4.07
2019-04-05T02:49:56.280Z,4.08
2019-04-05T02:50:59.076Z,4.11
2019-04-05T02:52:01.910Z,4.11
2019-04-05T02:53:05.178Z,4.14
2019-04-05T02:54:07.981Z,4.12
2019-04-05T02:55:11.097Z,4.10
2019-04-05T02:56:13.941Z,4.12
2019-04-05T02:57:16.775Z,4.12
2019-04-05T02:58:19.653Z,4.13
2019-04-05T02:59:22.518Z,4.11
2019-04-05T03:00:25.391Z,4.11
2019-04-05T03:01:28.217Z,4.13
2019-04-05T03:02:31.408Z,4.16
2019-04-05T03:03:34.595Z,4.16
2019-04-05T03:04:37.428Z,4.17
2019-04-05T03:05:41.871Z,4.17
2019-04-05T03:06:45.432Z,4.20
2019-04-05T03:07:48.279Z,4.18
2019-04-05T03:08:51.157Z,4.19
2019-04-05T03:09:53.959Z,4.25
2019-04-05T03:10:56.860Z,4.23
2019-04-05T03:11:59.701Z,4.27
2019-04-05T03:13:02.846Z,4.21
2019-04-05T03:14:05.653Z,4.21
2019-04-05T03:15:08.545Z,4.19
2019-04-05T03:16:11.581Z,4.18
2019-04-05T03:17:14.416Z,4.21
2019-04-05T03:18:17.677Z,4.22
2019-04-05T03:19:21.372Z,4.23
2019-04-05T03:20:24.307Z,4.23
2019-04-05T03:21:27.537Z,4.22
2019-04-05T03:22:30.474Z,4.20
2019-04-05T03:23:33.508Z,4.20
2019-04-05T03:24:36.593Z,4.27
2019-04-05T03:25:39.788Z,4.29
2019-04-05T03:26:42.602Z,4.24
2019-04-05T03:27:45.481Z,4.22
2019-04-05T03:28:48.322Z,4.22
2019-04-05T03:29:51.199Z,4.25
2019-04-05T03:30:55.995Z,4.25
2019-04-05T03:31:59.344Z,4.25
2019-04-05T03:33:02.191Z,4.19
2019-04-05T03:34:05.167Z,4.19
2019-04-05T03:35:08.088Z,4.21
2019-04-05T03:36:10.961Z,4.21
2019-04-05T03:37:14.315Z,4.17
2019-04-05T03:38:17.166Z,4.16
2019-04-05T03:39:20.008Z,4.21
2019-04-05T03:40:22.817Z,4.21
2019-04-05T03:41:25.620Z,4.24
2019-04-05T03:42:28.932Z,4.20
2019-04-05T03:43:32.702Z,4.20
2019-04-05T03:44:35.919Z,4.18
2019-04-05T03:45:38.753Z,4.19
2019-04-05T03:46:55.689Z,4.21
2019-04-05T03:47:46.136Z,4.20
2019-04-05T03:48:49.276Z,4.21
2019-04-05T03:49:52.920Z,4.24
2019-04-05T03:50:55.739Z,4.28
2019-04-05T03:51:58.988Z,4.29
2019-04-05T03:53:01.803Z,4.29
2019-04-05T03:54:05.174Z,4.32
2019-04-05T03:55:07.994Z,4.34
2019-04-05T03:56:11.602Z,4.30
2019-04-05T03:57:14.468Z,4.30
2019-04-05T03:58:17.341Z,4.29
2019-04-05T03:59:20.159Z,4.28
2019-04-05T04:00:25.795Z,4.24
2019-04-05T04:01:28.625Z,4.22
2019-04-05T04:02:32.253Z,4.22
2019-04-05T04:03:37.386Z,4.24
2019-04-05T04:04:40.261Z,4.24
2019-04-05T04:05:45.078Z,4.22
2019-04-05T04:06:49.173Z,4.24
2019-04-05T04:07:52.054Z,4.26
2019-04-05T04:08:59.379Z,4.23
2019-04-05T04:10:02.227Z,4.21
2019-04-05T04:11:05.060Z,4.21
2019-04-05T04:12:08.302Z,4.23
2019-04-05T04:13:11.229Z,4.22
2019-04-05T04:14:14.447Z,4.22
2019-04-05T04:15:17.719Z,4.20
2019-04-05T04:16:20.508Z,4.15
2019-04-05T04:17:23.339Z,4.12
2019-04-05T04:18:26.702Z,4.19
2019-04-05T04:19:29.522Z,4.21
2019-04-05T04:20:35.928Z,4.18
2019-04-05T04:21:39.141Z,4.15
2019-04-05T04:22:42.437Z,4.12
2019-04-05T04:23:45.330Z,4.15
2019-04-05T04:24:48.140Z,4.17
2019-04-05T04:25:50.955Z,4.17
2019-04-05T04:26:53.825Z,4.17
2019-04-05T04:27:59.113Z,4.09
2019-04-05T04:29:02.034Z,4.15
2019-04-05T04:30:05.238Z,4.15
2019-04-05T04:31:08.047Z,4.17
2019-04-05T04:32:10.875Z,4.17
2019-04-05T04:33:13.700Z,4.19
2019-04-05T04:34:16.880Z,4.21
2019-04-05T04:35:20.125Z,4.22
2019-04-05T04:36:22.940Z,4.16
2019-04-05T04:37:25.770Z,4.16
2019-04-05T04:38:29.527Z,4.17
2019-04-05T04:39:32.334Z,4.19
2019-04-05T04:40:35.631Z,4.20
2019-04-05T04:41:38.545Z,4.20
2019-04-05T04:42:41.367Z,4.13
2019-04-05T04:43:44.215Z,4.13
2019-04-05T04:44:47.451Z,4.17
2019-04-05T04:45:50.344Z,4.18
2019-04-05T04:46:54.041Z,4.25
2019-04-05T04:47:56.930Z,4.28
2019-04-05T04:48:59.730Z,4.27
2019-04-05T04:50:02.568Z,4.27
2019-04-05T04:51:05.959Z,4.30
2019-04-05T04:52:08.880Z,4.29
2019-04-05T04:53:11.981Z,4.29
2019-04-05T04:54:14.814Z,4.30
2019-04-05T04:55:18.249Z,4.31
2019-04-05T04:56:21.178Z,4.28
2019-04-05T04:57:24.001Z,4.26
2019-04-05T04:58:26.836Z,4.27
2019-04-05T04:59:30.141Z,4.29
2019-04-05T05:00:34.374Z,4.34
2019-04-05T05:01:37.316Z,4.34
2019-04-05T05:02:41.715Z,4.32
2019-04-05T05:03:44.618Z,4.32
2019-04-05T05:04:47.530Z,4.38
2019-04-05T05:05:50.974Z,4.38
2019-04-05T05:06:53.870Z,4.42
2019-04-05T05:07:57.121Z,4.42
2019-04-05T05:08:59.984Z,4.45
2019-04-05T05:10:03.384Z,4.46
2019-04-05T05:11:14.426Z,4.44
2019-04-05T05:12:11.714Z,4.44
2019-04-05T05:13:19.451Z,4.47
2019-04-05T05:14:22.330Z,4.40
2019-04-05T05:15:27.286Z,4.43
2019-04-05T05:16:31.219Z,4.46
2019-04-05T05:17:38.610Z,4.48
2019-04-05T05:18:40.656Z,4.48
2019-04-05T05:19:43.485Z,4.51
2019-04-05T05:20:46.363Z,4.49
2019-04-05T05:21:50.686Z,4.48
2019-04-05T05:22:54.718Z,4.49
2019-04-05T05:23:57.970Z,4.49
2019-04-05T05:25:01.218Z,4.50
2019-04-05T05:26:05.294Z,4.50
2019-04-05T05:27:08.131Z,4.50
2019-04-05T05:28:11.439Z,4.50
2019-04-05T05:29:14.240Z,4.50
2019-04-05T05:43:54.481Z,4.46
2019-04-05T05:44:59.688Z,4.33
2019-04-05T05:46:02.616Z,4.33
2019-04-05T05:47:06.081Z,4.25
2019-04-05T05:48:08.998Z,4.29
2019-04-05T05:49:12.409Z,4.38
2019-04-05T05:50:17.429Z,4.43
2019-04-05T05:51:20.287Z,4.49
2019-04-05T05:52:23.922Z,4.53
2019-04-05T05:53:26.721Z,4.53
2019-04-05T05:54:30.906Z,4.52
2019-04-05T05:55:34.319Z,4.52
2019-04-05T05:56:37.209Z,4.55
2019-04-05T05:57:42.806Z,4.47
2019-04-05T05:58:45.780Z,4.47
2019-04-05T05:59:50.720Z,4.53
2019-04-05T06:00:53.526Z,4.57
2019-04-05T06:01:56.700Z,4.57
2019-04-05T06:02:59.941Z,4.59
2019-04-05T06:04:03.235Z,4.59
2019-04-05T06:05:08.046Z,4.59
2019-04-05T06:06:11.367Z,4.59
2019-04-05T06:07:14.204Z,4.63
2019-04-05T06:08:29.067Z,4.64
2019-04-05T06:09:33.258Z,4.69
2019-04-05T06:10:37.123Z,4.71
2019-04-05T06:11:42.078Z,4.72
2019-04-05T06:12:47.373Z,4.74
2019-04-05T06:13:50.213Z,4.74
2019-04-05T06:14:54.002Z,4.74
2019-04-05T06:15:56.858Z,4.67
2019-04-05T06:16:59.741Z,4.67
2019-04-05T06:18:05.006Z,4.67
2019-04-05T06:19:07.526Z,4.69
2019-04-05T06:20:10.414Z,4.66
2019-04-05T06:21:13.659Z,4.68
2019-04-05T06:22:19.347Z,4.72
2019-04-05T06:23:32.955Z,4.71
2019-04-05T06:24:26.753Z,4.72
2019-04-05T06:25:30.696Z,4.69
2019-04-05T06:26:33.577Z,4.76
2019-04-05T06:27:39.235Z,4.69
2019-04-05T06:28:42.558Z,4.71
2019-04-05T06:29:50.811Z,4.70
2019-04-05T06:30:54.620Z,4.75
2019-04-05T06:32:00.636Z,4.75
2019-04-05T06:33:04.537Z,4.75
2019-04-05T06:34:07.347Z,4.83
2019-04-05T06:35:14.329Z,4.85
2019-04-05T06:36:17.331Z,4.84
2019-04-05T06:37:20.402Z,4.81
2019-04-05T06:38:23.324Z,4.80
2019-04-05T06:39:26.452Z,4.77
2019-04-05T06:40:40.870Z,4.75
2019-04-05T06:41:37.001Z,4.75
2019-04-05T06:42:40.308Z,4.79
2019-04-05T06:43:43.150Z,4.81
2019-04-05T06:44:46.362Z,4.80
2019-04-05T06:45:49.543Z,4.80
2019-04-05T06:46:53.232Z,4.82
2019-04-05T06:47:56.424Z,4.82
2019-04-05T06:48:59.804Z,4.82
2019-04-05T06:50:03.147Z,4.75
2019-04-05T06:51:08.788Z,4.75
2019-04-05T06:52:15.712Z,4.82
2019-04-05T06:53:19.056Z,4.86
2019-04-05T06:54:23.976Z,4.89
2019-04-05T06:55:26.991Z,4.90
2019-04-05T06:56:30.149Z,4.90
2019-04-05T06:57:36.543Z,4.91
2019-04-05T06:58:39.895Z,4.91
2019-04-05T06:59:46.729Z,4.97
2019-04-05T07:00:57.061Z,4.95
2019-04-05T07:01:54.561Z,4.97
2019-04-05T07:02:57.456Z,4.92
2019-04-05T07:04:03.451Z,4.91
2019-04-05T07:05:06.707Z,4.89
2019-04-05T07:06:09.569Z,4.86
2019-04-05T07:07:12.392Z,4.81
2019-04-05T07:08:18.208Z,4.78
2019-04-05T07:09:20.014Z,4.78
2019-04-05T07:10:23.621Z,4.74
2019-04-05T07:11:26.692Z,4.76
2019-04-05T07:12:29.949Z,4.76
2019-04-05T07:13:35.900Z,4.65
2019-04-05T07:14:38.776Z,4.67
2019-04-05T07:15:41.669Z,4.74
2019-04-05T07:16:44.505Z,4.74
2019-04-05T07:17:47.501Z,4.89
2019-04-05T07:18:50.301Z,4.89
2019-04-05T07:19:54.544Z,4.95
2019-04-05T07:21:05.874Z,4.96
2019-04-05T07:22:11.208Z,4.97
2019-04-05T07:23:14.557Z,4.95
2019-04-05T07:24:22.322Z,5.01
2019-04-05T07:25:25.490Z,5.01
2019-04-05T07:26:28.397Z,5.09
2019-04-05T07:27:33.830Z,5.07
2019-04-05T07:28:36.779Z,5.12
2019-04-05T07:29:39.586Z,5.16
2019-04-05T07:30:44.219Z,5.15
2019-04-05T07:31:48.787Z,5.22
2019-04-05T07:32:53.951Z,5.26
2019-04-05T07:33:59.758Z,5.26
2019-04-05T07:35:04.849Z,5.27
2019-04-05T07:36:11.608Z,5.16
2019-04-05T07:37:16.200Z,5.24
2019-04-05T07:38:22.394Z,5.23
2019-04-05T07:39:27.284Z,5.23
2019-04-05T07:40:32.494Z,5.27
2019-04-05T07:41:35.432Z,5.34
2019-04-05T07:42:40.925Z,5.36
2019-04-05T07:43:44.186Z,5.45
2019-04-05T07:44:47.063Z,5.45
2019-04-05T07:45:51.704Z,5.52
2019-04-05T07:46:54.710Z,5.46
2019-04-05T07:47:58.027Z,5.50
2019-04-05T07:49:00.812Z,5.49
2019-04-05T07:50:06.461Z,5.49
2019-04-05T07:51:09.813Z,5.51
2019-04-05T07:52:22.391Z,5.43
2019-04-05T07:53:22.629Z,5.37
2019-04-05T07:54:25.494Z,5.40
2019-04-05T07:55:29.439Z,5.39
2019-04-05T07:56:32.339Z,5.49
2019-04-05T07:57:37.865Z,5.54
2019-04-05T07:58:41.096Z,5.51
2019-04-05T07:59:43.969Z,5.60
2019-04-05T08:00:48.406Z,5.60
2019-04-05T08:01:51.724Z,5.55
2019-04-05T08:02:54.599Z,5.55
2019-04-05T08:03:58.484Z,5.61
2019-04-05T08:05:02.233Z,5.57
2019-04-05T08:06:05.455Z,5.67
2019-04-05T08:07:08.323Z,5.62
2019-04-05T08:08:15.798Z,5.63
2019-04-05T08:09:18.652Z,5.63
2019-04-05T08:10:22.530Z,5.69
2019-04-05T08:11:26.182Z,5.72
2019-04-05T08:12:29.236Z,5.80
2019-04-05T08:13:32.368Z,5.83
2019-04-05T08:14:36.217Z,5.80
2019-04-05T08:15:39.212Z,5.80
2019-04-05T08:16:42.227Z,5.82
2019-04-05T08:17:45.463Z,5.85
2019-04-05T08:18:57.666Z,5.86
2019-04-05T08:19:56.024Z,5.81
2019-04-05T08:20:58.847Z,5.85
2019-04-05T08:22:03.975Z,5.90
2019-04-05T08:23:07.426Z,5.90
2019-04-05T08:24:10.674Z,5.99
2019-04-05T08:25:13.615Z,6.03
2019-04-05T08:26:19.439Z,6.07
2019-04-05T08:27:25.318Z,6.08
2019-04-05T08:28:29.680Z,6.07
2019-04-05T08:29:33.190Z,5.99
2019-04-05T08:30:39.130Z,6.12
2019-04-05T08:31:42.347Z,6.22
2019-04-05T08:32:45.256Z,6.24
2019-04-05T08:33:51.070Z,6.35
2019-04-05T08:34:54.391Z,6.38
2019-04-05T08:35:57.900Z,6.39
2019-04-05T08:37:01.470Z,6.34
2019-04-05T08:38:04.324Z,6.35
2019-04-05T08:39:07.580Z,6.35
2019-04-05T08:40:10.561Z,6.43
2019-04-05T08:41:14.138Z,6.44
2019-04-05T08:42:17.446Z,6.49
2019-04-05T08:43:20.614Z,6.54
2019-04-05T08:44:23.978Z,6.51
2019-04-05T08:45:27.156Z,6.51
2019-04-05T08:46:30.257Z,6.52
2019-04-05T08:47:33.422Z,6.55
2019-04-05T08:48:36.705Z,6.55
2019-04-05T08:49:41.452Z,6.56
2019-04-05T08:50:44.585Z,6.58
2019-04-05T08:51:47.912Z,6.48
2019-04-05T08:52:51.062Z,6.48
2019-04-05T08:53:54.439Z,6.49
2019-04-05T08:54:57.495Z,6.43
2019-04-05T08:56:01.143Z,6.42
2019-04-05T08:57:04.583Z,6.42
2019-04-05T08:58:07.863Z,6.54
2019-04-05T08:59:10.751Z,6.46
2019-04-05T09:00:16.131Z,6.43
2019-04-05T09:01:19.114Z,6.46
2019-04-05T09:02:23.966Z,6.48
2019-04-05T09:03:26.785Z,6.45
2019-04-05T09:04:30.077Z,6.50
2019-04-05T09:05:33.505Z,6.50
2019-04-05T09:06:36.527Z,6.44
2019-04-05T09:07:39.885Z,6.42
2019-04-05T09:08:42.784Z,6.39
2019-04-05T09:09:45.632Z,6.40
2019-04-05T09:10:48.619Z,6.38
2019-04-05T09:11:51.449Z,6.36
2019-04-05T09:12:54.620Z,6.38
2019-04-05T09:13:57.492Z,6.38
2019-04-05T09:15:00.410Z,6.41
2019-04-05T09:16:03.296Z,6.42
2019-04-05T09:17:06.460Z,6.35
2019-04-05T09:18:09.732Z,6.35
2019-04-05T09:19:23.553Z,6.34
2019-04-05T09:20:20.407Z,6.28
2019-04-05T09:21:23.453Z,6.21
2019-04-05T09:22:27.377Z,6.15
2019-04-05T09:23:34.667Z,6.09
2019-04-05T09:24:37.885Z,6.16
2019-04-05T09:25:41.209Z,6.22
2019-04-05T09:26:44.178Z,6.23
2019-04-05T09:27:49.781Z,6.20
2019-04-05T09:28:52.848Z,6.19
2019-04-05T09:30:17.785Z,6.20
2019-04-05T09:31:20.602Z,6.29
2019-04-05T09:32:29.385Z,6.29
2019-04-05T09:33:34.998Z,6.28
2019-04-05T09:34:37.887Z,6.29
2019-04-05T09:35:42.930Z,6.25
2019-04-05T09:36:46.353Z,6.22
2019-04-05T09:37:49.519Z,6.32
2019-04-05T09:38:59.357Z,6.30
2019-04-05T09:40:04.159Z,6.30
2019-04-05T09:41:07.475Z,6.36
2019-04-05T09:42:18.297Z,6.28
2019-04-05T09:43:23.307Z,6.37
2019-04-05T09:44:30.201Z,6.44
2019-04-05T09:45:34.443Z,6.44
2019-04-05T09:46:46.505Z,6.37
2019-04-05T09:47:42.240Z,6.30
2019-04-05T09:48:46.478Z,6.29
2019-04-05T09:49:50.917Z,6.29
2019-04-05T09:50:53.747Z,6.15
2019-04-05T09:52:03.644Z,6.18
2019-04-05T09:53:14.282Z,6.27
2019-04-05T09:54:18.755Z,6.25
2019-04-05T09:55:21.668Z,6.18
2019-04-05T09:56:26.619Z,6.18
2019-04-05T09:57:29.985Z,6.23
2019-04-05T09:58:33.742Z,6.23
2019-04-05T09:59:36.710Z,6.22
2019-04-05T10:00:40.102Z,6.20
2019-04-05T10:01:45.193Z,6.28
2019-04-05T10:02:48.478Z,6.30
2019-04-05T10:03:51.492Z,6.32
2019-04-05T10:04:54.792Z,6.38
2019-04-05T10:05:59.970Z,6.42
2019-04-05T10:07:03.038Z,6.39
2019-04-05T10:08:06.363Z,6.33
2019-04-05T10:09:09.271Z,6.33
2019-04-05T10:10:12.432Z,6.33
2019-04-05T10:11:15.866Z,6.29
2019-04-05T10:12:18.679Z,6.29
2019-04-05T10:13:21.729Z,6.25
2019-04-05T10:14:28.128Z,6.27
2019-04-05T10:15:31.067Z,6.34
2019-04-05T10:16:34.213Z,6.39
2019-04-05T10:17:37.040Z,6.38
2019-04-05T10:18:39.974Z,6.38
2019-04-05T10:19:49.769Z,6.35
2019-04-05T10:20:50.267Z,6.37
2019-04-05T10:21:53.174Z,6.37
2019-04-05T10:22:56.392Z,6.34
2019-04-05T10:23:59.280Z,6.34
2019-04-05T10:25:03.388Z,6.41
2019-04-05T10:26:06.370Z,6.41
2019-04-05T10:27:10.261Z,6.41
2019-04-05T10:28:13.117Z,6.49
2019-04-05T10:29:16.432Z,6.51
2019-04-05T10:42:45.002Z,6.67
2019-04-05T10:43:47.920Z,6.60
2019-04-05T10:44:50.809Z,6.50
2019-04-05T10:45:53.863Z,6.50
2019-04-05T10:46:58.250Z,6.39
2019-04-05T10:48:02.000Z,6.39
2019-04-05T10:49:04.886Z,6.41
2019-04-05T10:50:08.256Z,6.41
2019-04-05T10:51:23.003Z,6.34
2019-04-05T10:52:29.484Z,6.44
2019-04-05T10:53:32.438Z,6.44
2019-04-05T10:54:35.986Z,6.40
2019-04-05T10:55:41.237Z,6.40
2019-04-05T10:56:44.529Z,6.45
2019-04-05T10:57:50.936Z,6.39
2019-04-05T10:58:59.182Z,6.49
2019-04-05T11:00:15.944Z,6.58
2019-04-05T11:01:19.347Z,6.61
2019-04-05T11:02:22.653Z,6.58
2019-04-05T11:04:35.634Z,6.63
2019-04-05T11:05:38.503Z,6.63
2019-04-05T11:06:41.878Z,6.76
2019-04-05T11:07:44.822Z,6.79
2019-04-05T11:08:48.540Z,6.74
2019-04-05T11:09:56.547Z,6.72
2019-04-05T11:10:59.612Z,6.64
2019-04-05T11:12:03.816Z,6.69
2019-04-05T11:13:09.608Z,6.70
2019-04-05T11:14:16.935Z,6.74
2019-04-05T11:15:21.209Z,6.74
2019-04-05T11:16:24.227Z,6.64
2019-04-05T11:17:27.078Z,6.64
2019-04-05T11:18:37.560Z,6.63
2019-04-05T11:19:40.330Z,6.51
2019-04-05T11:20:43.273Z,6.60
2019-04-05T11:21:47.935Z,6.63
2019-04-05T11:22:51.287Z,6.74
2019-04-05T11:23:55.774Z,6.80
2019-04-05T11:24:59.271Z,6.81
2019-04-05T11:26:07.273Z,6.77
2019-04-05T11:27:10.573Z,6.75
2019-04-05T11:28:16.461Z,6.72
2019-04-05T11:29:19.366Z,6.72
2019-04-05T11:30:26.884Z,6.71
2019-04-05T11:31:30.361Z,6.75
2019-04-05T11:32:33.283Z,6.79
2019-04-05T11:33:36.117Z,6.74
2019-04-05T11:34:38.962Z,6.76
2019-04-05T11:35:41.820Z,6.79
2019-04-05T11:36:45.682Z,6.80
2019-04-05T11:37:50.776Z,6.80
2019-04-05T11:38:53.522Z,6.74
2019-04-05T11:39:59.751Z,6.74
2019-04-05T11:41:03.431Z,6.81
2019-04-05T11:42:06.684Z,6.98
2019-04-05T11:43:11.834Z,6.93
2019-04-05T11:44:15.687Z,6.96
2019-04-05T11:45:20.045Z,6.96
2019-04-05T11:46:25.372Z,7.04
2019-04-05T11:47:28.248Z,7.08
2019-04-05T11:48:33.162Z,7.16
2019-04-05T11:49:38.098Z,7.18
2019-04-05T11:50:41.450Z,7.19
2019-04-05T11:51:44.338Z,7.12
2019-04-05T11:52:51.487Z,7.14
2019-04-05T11:54:01.091Z,7.14
2019-04-05T11:55:05.813Z,7.14
2019-04-05T11:56:15.048Z,7.22
2019-04-05T11:57:13.871Z,7.26
2019-04-05T11:58:17.587Z,7.27
2019-04-05T11:59:24.279Z,7.32
2019-04-05T12:00:36.692Z,7.32
2019-04-05T12:01:47.321Z,7.27
2019-04-05T12:02:57.808Z,7.27
2019-04-05T12:04:01.069Z,7.32
2019-04-05T12:05:03.899Z,7.32
2019-04-05T12:06:06.709Z,7.24
2019-04-05T12:07:10.074Z,7.24
2019-04-05T12:08:13.263Z,7.24
2019-04-05T12:09:19.052Z,7.30
2019-04-05T12:10:21.900Z,7.36
2019-04-05T12:11:35.915Z,7.35
2019-04-05T12:12:38.476Z,7.35
2019-04-05T12:13:41.304Z,7.26
2019-04-05T12:14:44.718Z,7.22
2019-04-05T12:15:50.072Z,7.23
2019-04-05T12:16:53.315Z,7.25
2019-04-05T12:17:57.972Z,7.32
2019-04-05T12:19:04.368Z,7.29
2019-04-05T12:20:05.338Z,7.29
2019-04-05T12:21:08.624Z,7.25
2019-04-05T12:22:11.549Z,7.25
2019-04-05T12:23:16.157Z,7.25
2019-04-05T12:24:19.146Z,7.26
2019-04-05T12:25:24.970Z,7.31
2019-04-05T12:26:28.119Z,7.28
2019-04-05T12:27:31.250Z,7.32
2019-04-05T12:28:37.270Z,7.32
2019-04-05T12:29:40.254Z,7.28
2019-04-05T12:30:46.091Z,7.23
2019-04-05T12:31:49.606Z,7.23
2019-04-05T12:32:53.242Z,7.32
2019-04-05T12:33:56.676Z,7.30
2019-04-05T12:34:59.544Z,7.30
2019-04-05T12:36:02.421Z,7.30
2019-04-05T12:37:05.233Z,7.39
2019-04-05T12:38:09.473Z,7.46
2019-04-05T12:39:12.406Z,7.47
2019-04-05T12:40:15.635Z,7.47
2019-04-05T12:41:21.545Z,7.47
2019-04-05T12:42:24.853Z,7.35
2019-04-05T12:43:27.747Z,7.35
2019-04-05T12:44:32.231Z,7.34
2019-04-05T12:45:35.118Z,7.27
2019-04-05T12:46:38.220Z,7.23
2019-04-05T12:47:45.371Z,7.20
2019-04-05T12:48:46.585Z,7.25
2019-04-05T12:49:49.875Z,7.25
2019-04-05T12:51:01.255Z,7.15
2019-04-05T12:52:03.269Z,7.11
2019-04-05T12:53:07.453Z,7.11
2019-04-05T12:54:12.583Z,7.19
2019-04-05T12:55:17.289Z,7.24
2019-04-05T12:56:20.152Z,7.30
2019-04-05T12:57:22.983Z,7.34
2019-04-05T12:58:26.765Z,7.34
2019-04-05T12:59:32.209Z,7.30
2019-04-05T13:00:38.932Z,7.27
2019-04-05T13:01:43.535Z,7.27
2019-04-05T13:02:47.756Z,7.38
2019-04-05T13:03:51.853Z,7.38
2019-04-05T13:04:56.254Z,7.38
2019-04-05T13:05:59.524Z,7.38
2019-04-05T13:07:07.388Z,7.40
2019-04-05T13:08:13.866Z,7.37
2019-04-05T13:09:21.458Z,7.35
2019-04-05T13:10:26.183Z,7.33
2019-04-05T13:11:29.659Z,7.31
2019-04-05T13:12:32.887Z,7.32
2019-04-05T13:13:36.175Z,7.32
2019-04-05T13:14:39.035Z,7.31
2019-04-05T13:15:44.585Z,7.25
2019-04-05T13:16:50.566Z,7.16
2019-04-05T13:18:01.245Z,7.17
2019-04-05T13:19:04.356Z,7.21
2019-04-05T13:20:07.287Z,7.21
2019-04-05T13:21:15.654Z,7.32
2019-04-05T13:22:22.598Z,7.33
2019-04-05T13:23:25.666Z,7.29
2019-04-05T13:24:32.010Z,7.20
2019-04-05T13:25:34.876Z,7.15
2019-04-05T13:26:37.835Z,7.24
2019-04-05T13:27:41.501Z,7.31
2019-04-05T13:28:48.595Z,7.26
2019-04-05T13:29:55.096Z,7.31
2019-04-05T13:30:58.235Z,7.32
2019-04-05T13:32:03.716Z,7.32
2019-04-05T13:33:12.222Z,7.36
2019-04-05T13:34:18.397Z,7.36
2019-04-05T13:35:22.158Z,7.38
2019-04-05T13:36:27.458Z,7.45
2019-04-05T13:37:30.868Z,7.51
2019-04-05T13:38:38.205Z,7.45
2019-04-05T13:39:42.470Z,7.45
2019-04-05T13:40:56.581Z,7.49
2019-04-05T13:42:01.301Z,7.40
2019-04-05T13:43:05.987Z,7.43
2019-04-05T13:44:08.933Z,7.45
2019-04-05T13:45:16.286Z,7.45
2019-04-05T13:46:22.750Z,7.45
2019-04-05T13:47:25.973Z,7.35
2019-04-05T13:48:28.888Z,7.35
2019-04-05T13:49:32.193Z,7.32
2019-04-05T13:50:35.146Z,7.32
2019-04-05T13:51:42.188Z,7.35
2019-04-05T13:52:46.957Z,7.34
2019-04-05T13:53:52.528Z,7.36
2019-04-05T13:54:55.402Z,7.36
2019-04-05T13:56:01.297Z,7.40
2019-04-05T13:57:04.683Z,7.30
2019-04-05T13:58:12.203Z,7.23
2019-04-05T13:59:18.100Z,7.27
2019-04-05T14:00:21.672Z,7.26
2019-04-05T14:01:26.855Z,7.26
2019-04-05T14:02:33.997Z,7.26
2019-04-05T14:03:37.402Z,7.21
2019-04-05T14:04:40.650Z,7.30
2019-04-05T14:05:43.508Z,7.37
2019-04-05T14:06:46.347Z,7.37
2019-04-05T14:07:49.211Z,7.34
2019-04-05T14:08:52.059Z,7.34
2019-04-05T14:09:55.547Z,7.27
2019-04-05T14:10:58.412Z,7.26
2019-04-05T14:12:01.349Z,7.26
2019-04-05T14:13:09.539Z,7.30
2019-04-05T14:14:12.188Z,7.30
2019-04-05T14:15:15.268Z,7.34
2019-04-05T14:16:18.936Z,7.33
2019-04-05T14:17:21.845Z,7.32
2019-04-05T14:18:24.679Z,7.32
2019-04-05T14:19:29.851Z,7.29
2019-04-05T14:20:35.962Z,7.14
2019-04-05T14:21:47.462Z,7.12
2019-04-05T14:22:58.003Z,7.12
2019-04-05T14:24:04.011Z,7.19
2019-04-05T14:25:10.215Z,7.21
2019-04-05T14:26:17.342Z,7.23
2019-04-05T14:27:24.505Z,7.19
2019-04-05T14:28:28.953Z,7.18
2019-04-05T14:29:33.405Z,7.20
2019-04-05T14:30:36.365Z,7.16
2019-04-05T14:31:43.389Z,7.16
2019-04-05T14:32:46.582Z,7.22
2019-04-05T14:33:55.323Z,7.25
2019-04-05T14:35:07.414Z,7.26
2019-04-05T14:36:14.228Z,7.26
2019-04-05T14:37:21.365Z,7.26
2019-04-05T14:38:26.814Z,7.24